createdAt,value
2022-10-03T00:00:08.629Z,10.59
2022-10-03T00:03:09.965Z,10.53
2022-10-03T00:06:30.258Z,10.47
2022-10-03T00:09:34.349Z,10.36
2022-10-03T00:12:47.419Z,10.35
2022-10-03T00:16:07.520Z,10.34
2022-10-03T00:19:17.637Z,10.33
2022-10-03T00:22:25.052Z,10.26
2022-10-03T00:25:32.474Z,10.22
2022-10-03T00:28:34.106Z,10.16
2022-10-03T00:32:01.908Z,10.12
2022-10-03T00:35:12.443Z,10.05
2022-10-03T00:38:32.675Z,9.92
2022-10-03T00:41:53.765Z,9.89
2022-10-03T00:45:13.617Z,9.90
2022-10-03T00:48:30.171Z,9.94
2022-10-03T00:51:34.724Z,9.98
2022-10-03T00:54:39.046Z,9.96
2022-10-03T00:57:40.344Z,9.97
2022-10-03T01:00:42.413Z,9.97
2022-10-03T01:03:47.009Z,9.96
2022-10-03T01:06:57.451Z,9.96
2022-10-03T01:10:09.502Z,9.98
2022-10-03T01:13:14.301Z,10.00
2022-10-03T01:16:37.923Z,10.00
2022-10-03T01:19:43.221Z,9.95
2022-10-03T01:23:02.998Z,9.89
2022-10-03T01:26:11.056Z,9.83
2022-10-03T01:29:31.170Z,9.83
2022-10-03T01:32:50.186Z,9.85
2022-10-03T01:35:57.233Z,9.82
2022-10-03T01:39:00.568Z,9.89
2022-10-03T01:42:21.020Z,9.92
2022-10-03T01:45:37.458Z,9.86
2022-10-03T01:48:57.717Z,9.82
2022-10-03T01:52:05.213Z,9.69
2022-10-03T01:55:10.313Z,9.71
2022-10-03T01:58:13.107Z,9.65
2022-10-03T02:01:16.516Z,9.61
2022-10-03T02:04:37.247Z,9.52
2022-10-03T02:07:52.927Z,9.47
2022-10-03T02:11:00.494Z,9.44
2022-10-03T02:14:07.300Z,9.42
2022-10-03T02:17:14.252Z,9.40
2022-10-03T02:20:24.059Z,9.37
2022-10-03T02:23:34.247Z,9.31
2022-10-03T02:26:45.155Z,9.30
2022-10-03T02:30:04.503Z,9.27
2022-10-03T02:33:12.181Z,9.24
2022-10-03T02:36:32.435Z,9.21
2022-10-03T02:39:39.975Z,9.16
2022-10-03T02:42:59.683Z,9.11
2022-10-03T02:46:09.909Z,9.07
2022-10-03T02:49:23.599Z,8.97
2022-10-03T02:52:31.108Z,8.78
2022-10-03T02:55:57.881Z,8.77
2022-10-03T02:59:22.191Z,8.68
2022-10-03T03:02:55.994Z,8.74
2022-10-03T03:06:15.946Z,8.79
2022-10-03T03:09:25.922Z,8.74
2022-10-03T03:12:39.135Z,8.70
2022-10-03T03:15:46.659Z,8.63
2022-10-03T03:19:11.283Z,8.61
2022-10-03T03:22:32.355Z,8.57
2022-10-03T03:25:50.556Z,8.51
2022-10-03T03:29:04.605Z,8.52
2022-10-03T03:32:28.275Z,8.53
2022-10-03T03:35:46.442Z,8.49
2022-10-03T03:38:47.781Z,8.46
2022-10-03T03:41:52.127Z,8.45
2022-10-03T03:44:56.478Z,8.39
2022-10-03T03:47:57.803Z,8.38
2022-10-03T03:51:06.423Z,8.27
2022-10-03T03:54:10.799Z,8.25
2022-10-03T03:57:47.637Z,8.27
2022-10-03T04:00:49.012Z,8.12
2022-10-03T04:03:58.319Z,8.16
2022-10-03T04:07:21.773Z,8.16
2022-10-03T04:10:25.933Z,8.00
2022-10-03T04:13:59.757Z,7.97
2022-10-03T04:17:38.815Z,8.01
2022-10-03T04:20:44.168Z,7.97
2022-10-03T04:24:04.084Z,7.98
2022-10-03T04:27:24.947Z,7.93
2022-10-03T04:30:32.272Z,7.86
2022-10-03T04:33:46.561Z,7.84
2022-10-03T04:36:47.878Z,7.74
2022-10-03T04:39:52.054Z,7.69
2022-10-03T04:43:02.485Z,7.65
2022-10-03T04:46:03.852Z,7.70
2022-10-03T04:49:12.107Z,7.50
2022-10-03T04:52:16.670Z,7.52
2022-10-03T04:55:24.897Z,7.52
2022-10-03T04:58:26.434Z,7.52
2022-10-03T05:01:29.842Z,7.50
2022-10-03T05:04:36.655Z,7.49
2022-10-03T05:07:42.034Z,7.50
2022-10-03T05:11:05.844Z,7.48
2022-10-03T05:14:11.938Z,7.44
2022-10-03T05:17:19.778Z,7.44
2022-10-03T05:20:27.106Z,7.41
2022-10-03T05:23:31.301Z,7.36
2022-10-03T05:26:50.946Z,7.30
2022-10-03T05:29:55.269Z,7.23
2022-10-03T05:32:57.389Z,7.21
2022-10-03T05:35:59.767Z,7.12
2022-10-03T05:39:16.589Z,7.12
2022-10-03T05:42:30.192Z,7.07
2022-10-03T05:45:35.547Z,7.02
2022-10-03T05:48:39.865Z,6.99
2022-10-03T05:51:46.748Z,7.01
2022-10-03T05:55:06.968Z,6.96
2022-10-03T05:58:27.143Z,6.99
2022-10-03T06:01:36.572Z,7.00
2022-10-03T06:04:44.286Z,7.03
2022-10-03T06:07:47.882Z,7.08
2022-10-03T06:10:52.343Z,7.04
2022-10-03T06:13:59.056Z,6.96
2022-10-03T06:17:09.840Z,6.79
2022-10-03T06:20:23.579Z,6.92
2022-10-03T06:23:43.510Z,6.87
2022-10-03T06:27:09.596Z,6.81
2022-10-03T06:30:22.003Z,6.89
2022-10-03T06:33:32.635Z,7.01
2022-10-03T06:36:37.073Z,7.09
2022-10-03T06:39:44.671Z,7.20
2022-10-03T06:42:45.949Z,7.24
2022-10-03T06:45:53.417Z,7.18
2022-10-03T06:49:13.607Z,7.16
2022-10-03T06:52:30.207Z,7.15
2022-10-03T06:55:51.886Z,7.18
2022-10-03T06:58:53.230Z,7.16
2022-10-03T07:02:03.806Z,7.17
2022-10-03T07:05:23.725Z,7.22
2022-10-03T07:08:28.772Z,7.28
2022-10-03T07:11:49.062Z,7.28
2022-10-03T07:15:02.808Z,7.37
2022-10-03T07:18:24.431Z,7.48
2022-10-03T07:21:44.768Z,7.56
2022-10-03T07:25:12.646Z,7.64
2022-10-03T07:28:29.529Z,7.70
2022-10-03T07:31:46.787Z,7.75
2022-10-03T07:35:00.410Z,7.82
2022-10-03T07:38:35.970Z,7.92
2022-10-03T07:41:55.841Z,8.05
2022-10-03T07:45:06.346Z,8.15
2022-10-03T07:48:25.813Z,8.26
2022-10-03T07:51:41.276Z,8.41
2022-10-03T07:54:55.162Z,8.55
2022-10-03T07:58:04.467Z,8.62
2022-10-03T08:01:07.939Z,8.68
2022-10-03T08:04:26.044Z,8.76
2022-10-03T08:07:47.205Z,8.90
2022-10-03T08:10:54.665Z,9.04
2022-10-03T08:14:08.415Z,9.18
2022-10-03T08:17:28.620Z,9.35
2022-10-03T08:20:39.183Z,9.60
2022-10-03T08:24:00.388Z,9.77
2022-10-03T08:27:07.876Z,9.97
2022-10-03T08:30:22.564Z,10.36
2022-10-03T08:33:23.902Z,11.18
2022-10-03T08:36:45.321Z,11.52
2022-10-03T08:39:54.908Z,11.79
2022-10-03T08:43:15.141Z,12.03
2022-10-03T08:46:19.589Z,12.29
2022-10-03T08:49:40.472Z,11.92
2022-10-03T08:52:48.295Z,11.76
2022-10-03T08:55:52.503Z,11.63
2022-10-03T08:59:12.746Z,11.63
2022-10-03T09:02:29.534Z,11.49
2022-10-03T09:05:34.021Z,11.58
2022-10-03T09:08:38.423Z,12.56
2022-10-03T09:11:59.995Z,12.54
2022-10-03T09:15:04.422Z,12.40
2022-10-03T09:18:27.111Z,12.27
2022-10-03T09:21:47.161Z,12.28
2022-10-03T09:24:55.201Z,12.22
2022-10-03T09:28:15.733Z,12.27
2022-10-03T09:31:17.097Z,12.44
2022-10-03T09:34:18.626Z,12.58
2022-10-03T09:37:19.928Z,12.79
2022-10-03T09:40:39.716Z,12.94
2022-10-03T09:43:44.079Z,12.96
2022-10-03T09:47:08.539Z,12.91
2022-10-03T09:50:28.695Z,13.62
2022-10-03T09:53:48.954Z,14.22
2022-10-03T09:56:53.350Z,14.91
2022-10-03T10:00:03.784Z,15.48
2022-10-03T10:03:13.081Z,13.84
2022-10-03T10:06:34.869Z,14.37
2022-10-03T10:09:36.194Z,13.74
2022-10-03T10:12:47.411Z,13.94
2022-10-03T10:16:03.295Z,15.16
2022-10-03T10:19:13.268Z,16.01
2022-10-03T10:22:21.234Z,16.09
2022-10-03T10:25:29.010Z,15.55
2022-10-03T10:28:50.671Z,15.86
2022-10-03T10:32:10.509Z,15.45
2022-10-03T10:35:31.139Z,16.03
2022-10-03T10:38:32.629Z,15.31
2022-10-03T10:41:52.594Z,14.74
2022-10-03T10:45:15.395Z,14.63
2022-10-03T10:48:25.868Z,14.34
2022-10-03T10:51:45.988Z,14.47
2022-10-03T10:54:51.292Z,16.50
2022-10-03T10:58:06.044Z,17.12
2022-10-03T11:01:26.306Z,17.36
2022-10-03T11:04:46.524Z,16.51
2022-10-03T11:08:07.192Z,15.57
2022-10-03T11:11:27.398Z,15.34
2022-10-03T11:14:31.849Z,15.25
2022-10-03T11:17:39.599Z,16.36
2022-10-03T11:20:44.018Z,17.60
2022-10-03T11:23:51.470Z,16.51
2022-10-03T11:27:02.097Z,15.62
2022-10-03T11:30:23.015Z,15.16
2022-10-03T11:33:35.552Z,15.71
2022-10-03T11:36:43.888Z,15.10
2022-10-03T11:39:45.526Z,14.90
2022-10-03T11:43:07.109Z,14.76
2022-10-03T11:46:42.357Z,15.45
2022-10-03T11:49:49.128Z,15.30
2022-10-03T11:52:53.430Z,15.72
2022-10-03T11:55:54.747Z,16.44
2022-10-03T11:59:07.174Z,16.13
2022-10-03T12:02:14.716Z,16.30
2022-10-03T12:05:19.125Z,16.93
2022-10-03T12:08:39.315Z,17.11
2022-10-03T12:11:43.590Z,16.08
2022-10-03T12:14:46.767Z,15.19
2022-10-03T12:18:14.613Z,14.60
2022-10-03T12:21:32.639Z,14.16
2022-10-03T12:24:34.714Z,14.36
2022-10-03T12:27:38.477Z,15.85
2022-10-03T12:30:49.048Z,16.70
2022-10-03T12:33:58.860Z,15.59
2022-10-03T12:37:16.037Z,16.47
2022-10-03T12:40:19.053Z,17.15
2022-10-03T12:43:53.559Z,17.38
2022-10-03T12:47:01.098Z,17.14
2022-10-03T12:50:07.493Z,16.90
2022-10-03T12:53:15.014Z,16.82
2022-10-03T12:56:22.555Z,17.82
2022-10-03T12:59:24.095Z,17.98
2022-10-03T13:02:35.562Z,17.76
2022-10-03T13:05:40.629Z,17.47
2022-10-03T13:08:59.013Z,16.25
2022-10-03T13:12:16.694Z,15.35
2022-10-03T13:15:36.905Z,15.65
2022-10-03T13:18:45.444Z,15.50
2022-10-03T13:21:52.842Z,15.30
2022-10-03T13:24:54.147Z,14.57
2022-10-03T13:28:02.055Z,14.59
2022-10-03T13:31:05.303Z,15.20
2022-10-03T13:34:10.556Z,15.22
2022-10-03T13:37:22.407Z,15.25
2022-10-03T13:40:23.746Z,17.07
2022-10-03T13:43:27.870Z,17.81
2022-10-03T13:46:31.218Z,17.83
2022-10-03T13:49:43.551Z,18.35
2022-10-03T13:53:17.473Z,18.58
2022-10-03T13:56:25.126Z,18.70
2022-10-03T13:59:32.403Z,18.49
2022-10-03T14:02:33.733Z,18.44
2022-10-03T14:05:52.196Z,18.32
2022-10-03T14:08:53.509Z,18.10
2022-10-03T14:12:04.270Z,18.29
2022-10-03T14:15:29.911Z,18.38
2022-10-03T14:18:50.162Z,19.35
2022-10-03T14:22:10.273Z,19.85
2022-10-03T14:25:11.607Z,19.35
2022-10-03T14:28:18.273Z,19.30
2022-10-03T14:31:40.357Z,17.99
2022-10-03T14:34:53.104Z,18.01
2022-10-03T14:37:57.496Z,17.79
2022-10-03T14:41:01.683Z,18.19
2022-10-03T14:44:13.609Z,18.16
2022-10-03T14:47:16.040Z,18.02
2022-10-03T14:50:18.036Z,18.18
2022-10-03T14:53:20.561Z,17.87
2022-10-03T14:56:24.369Z,17.09
2022-10-03T14:59:30.159Z,17.12
2022-10-03T15:02:33.834Z,16.71
2022-10-03T15:05:35.714Z,16.01
2022-10-03T15:08:43.686Z,15.44
2022-10-03T15:11:55.874Z,15.31
2022-10-03T15:15:08.525Z,15.02
2022-10-03T15:18:13.455Z,14.95
2022-10-03T15:21:14.821Z,14.90
2022-10-03T15:24:35.256Z,14.95
2022-10-03T15:27:37.551Z,14.85
2022-10-03T15:30:39.214Z,14.69
2022-10-03T15:33:40.655Z,14.73
2022-10-03T15:36:42.094Z,14.69
2022-10-03T15:39:45.581Z,14.47
2022-10-03T15:42:48.838Z,14.28
2022-10-03T15:45:50.322Z,14.23
2022-10-03T15:48:52.747Z,14.25
2022-10-03T15:51:54.508Z,14.04
2022-10-03T15:55:11.911Z,13.81
2022-10-03T15:58:26.263Z,13.62
2022-10-03T16:01:28.830Z,13.48
2022-10-03T16:04:31.354Z,13.33
2022-10-03T16:07:44.483Z,13.38
2022-10-03T16:10:57.015Z,13.37
2022-10-03T16:14:10.758Z,13.39
2022-10-03T16:17:19.699Z,13.34
2022-10-03T16:20:22.440Z,13.21
2022-10-03T16:23:24.630Z,13.09
2022-10-03T16:26:30.045Z,12.95
2022-10-03T16:29:33.223Z,12.76
2022-10-03T16:32:34.575Z,12.67
2022-10-03T16:35:41.550Z,12.53
2022-10-03T16:38:56.773Z,12.49
2022-10-03T16:41:58.154Z,12.35
2022-10-03T16:45:01.621Z,12.26
2022-10-03T16:48:22.365Z,12.14
2022-10-03T16:51:24.882Z,11.86
2022-10-03T16:54:27.054Z,11.75
2022-10-03T16:57:29.856Z,11.53
2022-10-03T17:00:40.341Z,11.35
2022-10-03T17:03:48.512Z,11.09
2022-10-03T17:06:54.325Z,11.06
2022-10-03T17:09:58.392Z,11.05
2022-10-03T17:13:03.675Z,10.99
2022-10-03T17:16:28.687Z,10.95
2022-10-03T17:19:35.951Z,10.70
2022-10-03T17:22:44.409Z,10.63
2022-10-03T17:25:50.235Z,10.53
2022-10-03T17:28:55.048Z,10.45
2022-10-03T17:32:00.532Z,10.38
2022-10-03T17:35:18.558Z,10.20
2022-10-03T17:38:54.434Z,10.14
2022-10-03T17:41:56.709Z,10.08
2022-10-03T17:44:59.669Z,9.99
2022-10-03T17:48:06.800Z,9.86
2022-10-03T17:51:26.513Z,9.83
2022-10-03T17:54:29.306Z,9.82
2022-10-03T17:57:36.906Z,9.74
2022-10-03T18:00:44.638Z,9.64
2022-10-03T18:03:49.723Z,9.60
2022-10-03T18:06:59.406Z,9.53
2022-10-03T18:10:00.774Z,9.53
2022-10-03T18:13:03.819Z,9.42
2022-10-03T18:16:12.464Z,9.24
2022-10-03T18:19:21.545Z,9.20
2022-10-03T18:22:30.867Z,9.07
2022-10-03T18:26:18.168Z,9.05
2022-10-03T18:29:31.100Z,9.02
2022-10-03T18:32:33.428Z,8.98
2022-10-03T18:35:35.256Z,8.84
2022-10-03T18:38:36.635Z,8.72
2022-10-03T18:41:45.077Z,8.68
2022-10-03T18:44:46.446Z,8.68
2022-10-03T18:47:51.704Z,8.73
2022-10-03T18:50:57.850Z,8.55
2022-10-03T18:54:00.158Z,8.49
2022-10-03T18:57:20.420Z,8.40
2022-10-03T19:00:25.205Z,8.38
2022-10-03T19:03:32.162Z,8.32
2022-10-03T19:06:44.639Z,8.27
2022-10-03T19:10:04.612Z,8.29
2022-10-03T19:13:09.249Z,8.27
2022-10-03T19:16:13.810Z,8.24
2022-10-03T19:19:34.183Z,8.37
2022-10-03T19:22:39.223Z,8.38
2022-10-03T19:25:41.188Z,8.33
2022-10-03T19:28:44.742Z,8.06
2022-10-03T19:31:52.816Z,8.01
2022-10-03T19:34:54.374Z,8.06
2022-10-03T19:37:56.604Z,8.08
2022-10-03T19:41:01.191Z,8.06
2022-10-03T19:44:03.843Z,7.97
2022-10-03T19:47:06.502Z,7.91
2022-10-03T19:50:35.262Z,7.96
2022-10-03T19:53:36.656Z,8.02
2022-10-03T19:56:37.988Z,8.07
2022-10-03T19:59:50.312Z,7.95
2022-10-03T20:02:52.825Z,7.75
2022-10-03T20:05:57.337Z,7.71
2022-10-03T20:09:15.784Z,7.66
2022-10-03T20:12:17.107Z,7.60
2022-10-03T20:15:20.762Z,7.64
2022-10-03T20:18:24.479Z,7.57
2022-10-03T20:21:26.229Z,7.53
2022-10-03T20:24:34.415Z,7.32
2022-10-03T20:27:38.742Z,7.29
2022-10-03T20:30:40.128Z,7.26
2022-10-03T20:33:41.466Z,7.22
2022-10-03T20:36:53.473Z,7.20
2022-10-03T20:39:55.280Z,7.15
2022-10-03T20:43:03.305Z,7.13
2022-10-03T20:46:15.885Z,7.13
2022-10-03T20:49:30.607Z,7.13
2022-10-03T20:52:33.506Z,7.03
2022-10-03T20:55:37.936Z,6.94
2022-10-03T20:58:42.961Z,6.86
2022-10-03T21:01:44.341Z,6.84
2022-10-03T21:04:50.962Z,6.84
2022-10-03T21:07:54.155Z,6.88
2022-10-03T21:10:56.591Z,6.93
2022-10-03T21:13:58.924Z,6.82
2022-10-03T21:17:00.270Z,6.68
2022-10-03T21:20:04.936Z,6.69
2022-10-03T21:23:14.134Z,6.62
2022-10-03T21:26:20.196Z,6.60
2022-10-03T21:29:24.542Z,6.60
2022-10-03T21:32:33.067Z,6.57
2022-10-03T21:35:37.727Z,6.49
2022-10-03T21:38:43.011Z,6.49
2022-10-03T21:41:44.324Z,6.61
2022-10-03T21:44:45.659Z,6.65
2022-10-03T21:47:50.805Z,6.52
2022-10-03T21:50:53.270Z,6.39
2022-10-03T21:54:06.877Z,6.46
2022-10-03T21:57:08.174Z,6.41
2022-10-03T22:00:14.409Z,6.41
2022-10-03T22:03:17.720Z,6.35
2022-10-03T22:06:20.469Z,6.27
2022-10-03T22:09:21.870Z,6.34
2022-10-03T22:12:23.409Z,6.39
2022-10-03T22:15:40.151Z,6.27
2022-10-03T22:19:00.190Z,6.24
2022-10-03T22:22:17.027Z,6.18
2022-10-03T22:25:21.588Z,6.20
2022-10-03T22:28:26.028Z,6.28
2022-10-03T22:31:27.545Z,6.27
2022-10-03T22:34:39.075Z,6.12
2022-10-03T22:37:40.848Z,5.99
2022-10-03T22:40:42.420Z,5.99
2022-10-03T22:43:43.973Z,5.96
2022-10-03T22:46:45.958Z,5.97
2022-10-03T22:49:47.341Z,5.97
2022-10-03T22:52:50.756Z,5.85
2022-10-03T22:55:53.066Z,5.82
2022-10-03T22:58:54.393Z,5.85
2022-10-03T23:01:56.903Z,5.81
2022-10-03T23:05:00.527Z,5.78
2022-10-03T23:08:01.844Z,5.75
2022-10-03T23:11:04.331Z,5.63
2022-10-03T23:14:09.898Z,5.59
2022-10-03T23:17:24.855Z,5.63
2022-10-03T23:20:33.134Z,5.70
2022-10-03T23:23:40.652Z,5.75
2022-10-03T23:26:57.789Z,5.79
2022-10-03T23:30:11.447Z,5.76
2022-10-03T23:33:16.852Z,5.69
2022-10-03T23:36:19.317Z,5.51
2022-10-03T23:39:30.610Z,5.44
2022-10-03T23:42:31.923Z,5.45
2022-10-03T23:45:33.726Z,5.45
2022-10-03T23:48:39.730Z,5.47
2022-10-03T23:51:41.878Z,5.35
2022-10-03T23:54:43.674Z,5.34
2022-10-03T23:57:45.059Z,5.28
